Time;durP1;ratioP1;P1;durP2;ratioP2;P2;SDS_P1;SDS_P2;PMS_P1;PMS_P2;Temp;Humidity;BMP_temperature;BMP_pressure;BME280_temperature;BME280_humidity;BME280_pressure;Samples;Min_cycle;Max_cycle;Signal;HPM_P1;HPM_P2
2021/11/18 00:00:39;;;;;;;10.17;7.40;;;;;;;;;;5036596;28;20403;-65
2021/11/18 00:03:06;;;;;;;10.80;7.20;;;;;;;;;;5036121;28;20399;-64
2021/11/18 00:05:32;;;;;;;11.13;7.10;;;;;;;;;;5049840;28;20540;-65
2021/11/18 00:07:58;;;;;;;8.73;7.27;;;;;;;;;;5054425;28;20442;-64
2021/11/18 00:10:26;;;;;;;10.50;6.67;;;;;;;;;;5055305;28;20886;-64
2021/11/18 00:12:53;;;;;;;8.83;7.00;;;;;;;;;;5054926;28;20492;-64
2021/11/18 00:15:20;;;;;;;9.10;7.47;;;;;;;;;;5051572;28;20414;-67
2021/11/18 00:17:46;;;;;;;9.80;7.23;;;;;;;;;;5053723;28;20831;-65
2021/11/18 00:20:14;;;;;;;10.40;8.10;;;;;;;;;;5037979;28;20407;-65
2021/11/18 00:22:41;;;;;;;9.87;6.87;;;;;;;;;;5033178;28;20414;-65
2021/11/18 00:25:09;;;;;;;10.37;7.30;;;;;;;;;;5038581;28;20414;-65
2021/11/18 00:27:35;;;;;;;10.60;8.00;;;;;;;;;;5053061;28;21062;-65
2021/11/18 00:30:01;;;;;;;9.03;7.00;;;;;;;;;;5037605;28;20916;-66
2021/11/18 00:32:27;;;;;;;10.53;7.80;;;;;;;;;;5033059;28;20782;-63
2021/11/18 00:34:53;;;;;;;10.27;7.83;;;;;;;;;;5033943;28;20537;-64
2021/11/18 00:37:19;;;;;;;7.13;6.43;;;;;;;;;;5053343;28;20799;-65
2021/11/18 00:39:45;;;;;;;11.27;8.17;;;;;;;;;;5038131;28;20967;-64
2021/11/18 00:42:11;;;;;;;8.30;7.37;;;;;;;;;;5033269;28;20406;-64
2021/11/18 00:44:37;;;;;;;9.67;7.20;;;;;;;;;;5034075;28;20497;-64
2021/11/18 00:47:04;;;;;;;8.40;6.93;;;;;;;;;;5041529;28;20488;-64
2021/11/18 00:49:30;;;;;;;8.97;7.63;;;;;;;;;;5041276;28;20421;-64
2021/11/18 00:51:56;;;;;;;9.83;7.70;;;;;;;;;;5054883;28;20492;-64
2021/11/18 00:54:22;;;;;;;9.60;8.17;;;;;;;;;;5041787;28;20748;-64
2021/11/18 00:56:48;;;;;;;9.83;7.37;;;;;;;;;;5044161;28;20437;-64
2021/11/18 00:59:14;;;;;;;8.73;7.83;;;;;;;;;;5042118;28;20455;-64
2021/11/18 01:01:45;;;;;;;9.20;7.37;;;;;;;;;;5035087;28;20399;-64
2021/11/18 01:04:12;;;;;;;9.60;7.40;;;;;;;;;;5035370;28;20858;-65
2021/11/18 01:06:39;;;;;;;12.73;8.90;;;;;;;;;;5048706;28;20450;-64
2021/11/18 01:09:05;;;;;;;9.43;7.73;;;;;;;;;;5043709;28;20406;-64
2021/11/18 01:11:32;;;;;;;11.57;7.90;;;;;;;;;;5038835;28;20465;-64
2021/11/18 01:13:59;;;;;;;10.10;8.40;;;;;;;;;;5039494;28;20816;-64
2021/11/18 01:16:27;;;;;;;10.20;7.20;;;;;;;;;;5047781;28;20438;-65
2021/11/18 01:18:53;;;;;;;10.10;8.70;;;;;;;;;;5046705;28;20410;-64
2021/11/18 01:21:20;;;;;;;11.10;8.23;;;;;;;;;;5038841;28;20904;-65
2021/11/18 01:23:47;;;;;;;8.43;7.07;;;;;;;;;;5038475;28;20403;-65
2021/11/18 01:26:15;;;;;;;9.47;7.87;;;;;;;;;;5042493;28;20436;-63
2021/11/18 01:28:41;;;;;;;9.93;8.33;;;;;;;;;;5040556;28;20426;-62
2021/11/18 01:31:07;;;;;;;12.97;8.90;;;;;;;;;;5038214;28;20414;-63
2021/11/18 01:33:34;;;;;;;10.03;8.07;;;;;;;;;;5037741;28;20402;-63
2021/11/18 01:36:00;;;;;;;9.47;7.30;;;;;;;;;;5037745;28;20422;-63
2021/11/18 01:38:26;;;;;;;10.00;8.30;;;;;;;;;;5045055;28;20418;-63
2021/11/18 01:40:54;;;;;;;11.77;8.93;;;;;;;;;;5036853;28;20923;-63
2021/11/18 01:43:21;;;;;;;10.80;8.70;;;;;;;;;;5037746;28;20485;-63
2021/11/18 01:45:47;;;;;;;11.73;8.60;;;;;;;;;;5037819;28;20402;-64
2021/11/18 01:48:13;;;;;;;11.33;8.63;;;;;;;;;;5040570;28;20453;-63
2021/11/18 01:50:41;;;;;;;11.50;8.53;;;;;;;;;;5053246;28;20406;-63
2021/11/18 01:53:10;;;;;;;9.90;7.80;;;;;;;;;;5057206;28;20452;-63
2021/11/18 01:55:36;;;;;;;12.47;9.47;;;;;;;;;;5055203;28;20406;-64
2021/11/18 01:58:02;;;;;;;11.00;8.80;;;;;;;;;;5053926;28;20410;-64
2021/11/18 02:00:31;;;;;;;10.47;8.60;;;;;;;;;;5056614;28;20813;-65
2021/11/18 02:02:58;;;;;;;10.90;7.60;;;;;;;;;;5057707;28;20473;-64
2021/11/18 02:05:29;;;;;;;9.47;7.13;;;;;;;;;;5048113;28;20426;-64
2021/11/18 02:07:55;;;;;;;9.67;8.40;;;;;;;;;;5048998;28;20450;-64
2021/11/18 02:10:24;;;;;;;9.97;8.33;;;;;;;;;;5055744;28;20406;-64
2021/11/18 02:12:50;;;;;;;10.90;8.83;;;;;;;;;;5057154;28;20449;-64
2021/11/18 02:15:23;;;;;;;8.33;7.00;;;;;;;;;;5056618;28;20410;-64
2021/11/18 02:17:49;;;;;;;10.77;8.77;;;;;;;;;;5045847;28;20496;-64
2021/11/18 02:20:20;;;;;;;11.00;8.20;;;;;;;;;;5056696;28;20394;-64
2021/11/18 02:22:46;;;;;;;10.60;8.50;;;;;;;;;;5056740;28;20790;-64
2021/11/18 02:25:13;;;;;;;10.53;8.17;;;;;;;;;;5056385;28;20410;-64
2021/11/18 02:27:39;;;;;;;11.67;9.30;;;;;;;;;;5048995;28;21063;-64
2021/11/18 02:30:06;;;;;;;14.07;9.67;;;;;;;;;;5056804;28;20886;-64
2021/11/18 02:32:37;;;;;;;9.50;7.70;;;;;;;;;;5056305;28;20453;-64
2021/11/18 02:35:06;;;;;;;9.70;8.40;;;;;;;;;;5056603;28;20858;-64
2021/11/18 02:37:32;;;;;;;9.67;8.10;;;;;;;;;;5043437;28;20430;-64
2021/11/18 02:39:58;;;;;;;9.07;7.20;;;;;;;;;;5055897;28;20442;-64
2021/11/18 02:42:25;;;;;;;9.03;7.63;;;;;;;;;;5056243;28;20406;-64
2021/11/18 02:44:51;;;;;;;9.43;7.83;;;;;;;;;;5055954;28;20884;-64
2021/11/18 02:47:17;;;;;;;10.33;8.40;;;;;;;;;;5041333;28;20459;-64
2021/11/18 02:49:45;;;;;;;8.90;7.53;;;;;;;;;;5058712;28;20432;-64
2021/11/18 02:52:12;;;;;;;9.80;7.57;;;;;;;;;;5060144;28;20504;-64
2021/11/18 02:54:39;;;;;;;9.53;8.23;;;;;;;;;;5051273;28;20513;-64
2021/11/18 02:57:06;;;;;;;10.43;8.70;;;;;;;;;;5053062;28;20958;-64
2021/11/18 02:59:32;;;;;;;10.17;8.73;;;;;;;;;;5055814;28;20432;-64
2021/11/18 03:01:58;;;;;;;9.50;7.87;;;;;;;;;;5055827;28;20844;-64
2021/11/18 03:04:25;;;;;;;11.93;9.20;;;;;;;;;;5055406;28;20455;-64
2021/11/18 03:06:52;;;;;;;9.43;8.10;;;;;;;;;;5052847;28;20449;-64
2021/11/18 03:09:18;;;;;;;10.17;8.10;;;;;;;;;;5055139;28;20484;-63
2021/11/18 03:11:44;;;;;;;11.27;7.83;;;;;;;;;;5054917;28;20975;-64
2021/11/18 03:14:10;;;;;;;10.67;9.33;;;;;;;;;;5054938;28;20401;-64
2021/11/18 03:16:37;;;;;;;10.60;8.23;;;;;;;;;;5041347;28;20502;-63
2021/11/18 03:19:03;;;;;;;10.37;8.40;;;;;;;;;;5055128;28;20417;-64
2021/11/18 03:21:30;;;;;;;10.50;8.20;;;;;;;;;;5054831;28;20497;-64
2021/11/18 03:23:57;;;;;;;10.97;8.83;;;;;;;;;;5054496;28;20414;-64
2021/11/18 03:26:25;;;;;;;12.73;9.47;;;;;;;;;;5044648;28;20466;-64
2021/11/18 03:28:51;;;;;;;11.57;8.57;;;;;;;;;;5062240;28;20508;-64
2021/11/18 03:31:18;;;;;;;11.30;9.00;;;;;;;;;;5058412;28;20891;-64
2021/11/18 03:33:56;;;;;;;12.40;9.30;;;;;;;;;;5056226;28;20432;-64
2021/11/18 03:36:23;;;;;;;10.63;9.03;;;;;;;;;;5050007;28;20476;-64
2021/11/18 03:38:50;;;;;;;12.90;9.40;;;;;;;;;;5047725;28;20405;-64
2021/11/18 03:41:17;;;;;;;10.17;9.07;;;;;;;;;;5055991;28;20414;-64
2021/11/18 03:43:54;;;;;;;9.40;8.40;;;;;;;;;;5055832;28;20872;-64
2021/11/18 03:46:23;;;;;;;10.53;8.50;;;;;;;;;;5054527;28;20478;-64
2021/11/18 03:48:49;;;;;;;11.33;7.30;;;;;;;;;;5055492;28;20418;-64
2021/11/18 03:51:15;;;;;;;10.67;9.07;;;;;;;;;;5055917;28;20410;-64
2021/11/18 03:53:42;;;;;;;10.87;8.67;;;;;;;;;;5056459;28;20421;-64
2021/11/18 03:56:10;;;;;;;10.53;7.50;;;;;;;;;;5037642;28;20486;-64
2021/11/18 03:58:36;;;;;;;9.17;8.20;;;;;;;;;;5039663;28;20415;-64
2021/11/18 04:01:03;;;;;;;10.90;8.00;;;;;;;;;;5035924;28;20433;-64
2021/11/18 04:03:30;;;;;;;14.03;8.70;;;;;;;;;;5035809;28;20503;-64
2021/11/18 04:05:57;;;;;;;11.57;8.30;;;;;;;;;;5036459;28;20434;-65
2021/11/18 04:08:23;;;;;;;14.97;9.43;;;;;;;;;;5053569;28;20410;-64
2021/11/18 04:10:49;;;;;;;13.63;9.67;;;;;;;;;;5054564;28;20394;-64
2021/11/18 04:13:15;;;;;;;10.87;8.50;;;;;;;;;;5055121;28;20481;-64
2021/11/18 04:15:43;;;;;;;10.40;9.07;;;;;;;;;;5035560;28;20470;-65
2021/11/18 04:18:09;;;;;;;11.30;9.03;;;;;;;;;;5037336;28;20401;-64
2021/11/18 04:20:36;;;;;;;9.10;8.00;;;;;;;;;;5055055;28;20398;-65
2021/11/18 04:23:03;;;;;;;9.23;7.80;;;;;;;;;;5054337;28;20463;-65
2021/11/18 04:25:32;;;;;;;11.30;9.00;;;;;;;;;;5048467;28;20425;-63
2021/11/18 04:27:59;;;;;;;11.43;9.80;;;;;;;;;;5034150;28;20800;-64
2021/11/18 04:30:28;;;;;;;10.83;8.73;;;;;;;;;;5054136;28;20420;-64
2021/11/18 04:32:54;;;;;;;11.60;9.23;;;;;;;;;;5053984;28;20549;-64
2021/11/18 04:35:20;;;;;;;10.83;9.10;;;;;;;;;;5036325;28;20406;-63
2021/11/18 04:37:46;;;;;;;11.10;8.07;;;;;;;;;;5035907;28;20428;-64
2021/11/18 04:40:12;;;;;;;10.30;8.73;;;;;;;;;;5049808;28;21008;-63
2021/11/18 04:42:40;;;;;;;11.93;9.70;;;;;;;;;;5055512;28;20412;-64
2021/11/18 04:45:07;;;;;;;14.37;9.73;;;;;;;;;;5039167;28;20740;-65
2021/11/18 04:47:33;;;;;;;11.63;9.40;;;;;;;;;;5039131;28;20451;-64
2021/11/18 04:49:59;;;;;;;9.70;8.70;;;;;;;;;;5037999;28;20387;-64
2021/11/18 04:52:25;;;;;;;10.50;9.10;;;;;;;;;;5055146;28;20446;-64
2021/11/18 04:54:51;;;;;;;12.43;9.97;;;;;;;;;;5040292;28;20777;-64
2021/11/18 04:57:17;;;;;;;14.20;10.23;;;;;;;;;;5033992;28;20840;-64
2021/11/18 04:59:43;;;;;;;12.33;9.60;;;;;;;;;;5055579;28;20817;-66
2021/11/18 05:02:09;;;;;;;11.43;9.00;;;;;;;;;;5053925;28;20398;-63
2021/11/18 05:04:35;;;;;;;12.40;9.37;;;;;;;;;;5037653;28;20411;-65
2021/11/18 05:07:02;;;;;;;11.40;9.33;;;;;;;;;;5033176;28;20454;-65
2021/11/18 05:09:28;;;;;;;10.87;9.10;;;;;;;;;;5047927;28;20410;-65
2021/11/18 05:11:55;;;;;;;10.77;8.53;;;;;;;;;;5052648;28;20499;-63
2021/11/18 05:14:21;;;;;;;12.53;10.37;;;;;;;;;;5051153;28;20410;-64
2021/11/18 05:16:47;;;;;;;11.17;9.47;;;;;;;;;;5052490;28;20472;-64
2021/11/18 05:19:13;;;;;;;11.10;8.37;;;;;;;;;;5053987;28;20737;-64
2021/11/18 05:21:41;;;;;;;11.70;9.30;;;;;;;;;;5054025;28;20447;-64
2021/11/18 05:24:08;;;;;;;12.40;8.97;;;;;;;;;;5052697;28;20436;-64
2021/11/18 05:26:34;;;;;;;11.17;8.90;;;;;;;;;;5053322;28;20418;-63
2021/11/18 05:29:00;;;;;;;10.93;8.87;;;;;;;;;;5039000;28;20406;-64
2021/11/18 05:31:30;;;;;;;11.70;8.93;;;;;;;;;;5054688;28;20752;-64
2021/11/18 05:33:57;;;;;;;10.53;8.30;;;;;;;;;;5053537;28;20746;-64
2021/11/18 05:36:23;;;;;;;14.00;9.20;;;;;;;;;;5052075;28;20491;-69
2021/11/18 05:38:50;;;;;;;13.30;9.40;;;;;;;;;;5050177;28;20425;-64
2021/11/18 05:41:17;;;;;;;11.30;7.93;;;;;;;;;;5072476;28;20860;-66
2021/11/18 05:43:44;;;;;;;14.30;10.73;;;;;;;;;;5054022;28;20817;-64
2021/11/18 05:46:11;;;;;;;10.00;8.50;;;;;;;;;;5047416;28;20422;-67
2021/11/18 05:48:38;;;;;;;13.13;10.00;;;;;;;;;;5052125;28;20910;-66
2021/11/18 05:51:04;;;;;;;10.73;8.73;;;;;;;;;;5051907;28;20560;-66
2021/11/18 05:53:32;;;;;;;14.10;9.77;;;;;;;;;;5043547;28;20786;-68
2021/11/18 05:55:59;;;;;;;11.13;8.77;;;;;;;;;;5049856;28;20432;-67
2021/11/18 05:58:26;;;;;;;11.97;9.60;;;;;;;;;;5064986;28;20406;-67
2021/11/18 06:00:52;;;;;;;11.60;8.07;;;;;;;;;;5056021;28;20406;-66
2021/11/18 06:03:18;;;;;;;10.10;9.10;;;;;;;;;;5046924;28;20417;-68
2021/11/18 06:05:44;;;;;;;11.87;9.00;;;;;;;;;;5045280;28;20412;-67
2021/11/18 06:08:10;;;;;;;12.47;8.17;;;;;;;;;;5052258;28;20429;-65
2021/11/18 06:10:36;;;;;;;12.27;8.63;;;;;;;;;;5055482;28;20850;-67
2021/11/18 06:13:03;;;;;;;11.10;8.77;;;;;;;;;;5047020;28;20799;-65
2021/11/18 06:15:29;;;;;;;10.83;8.60;;;;;;;;;;5036422;28;20415;-65
2021/11/18 06:17:56;;;;;;;16.70;9.30;;;;;;;;;;5034013;28;20772;-64
2021/11/18 06:20:22;;;;;;;13.80;11.40;;;;;;;;;;5054755;28;20425;-65
2021/11/18 06:22:48;;;;;;;13.77;10.60;;;;;;;;;;5048210;28;20434;-64
2021/11/18 06:25:16;;;;;;;13.37;8.63;;;;;;;;;;5035741;28;20415;-66
2021/11/18 06:27:43;;;;;;;15.93;10.10;;;;;;;;;;5035303;28;20427;-65
2021/11/18 06:30:11;;;;;;;13.47;8.97;;;;;;;;;;5049327;28;20949;-63
2021/11/18 06:32:37;;;;;;;13.83;9.70;;;;;;;;;;5053503;28;20816;-66
2021/11/18 06:35:04;;;;;;;17.23;9.40;;;;;;;;;;5046519;28;20516;-66
2021/11/18 06:37:30;;;;;;;12.93;10.17;;;;;;;;;;5052076;28;20437;-64
2021/11/18 06:39:56;;;;;;;12.10;8.40;;;;;;;;;;5053174;28;20433;-63
2021/11/18 06:42:22;;;;;;;13.20;9.37;;;;;;;;;;5043981;28;20579;-65
2021/11/18 06:44:48;;;;;;;13.27;8.93;;;;;;;;;;5040213;28;20465;-65
2021/11/18 06:47:14;;;;;;;14.00;8.80;;;;;;;;;;5043260;28;20431;-65
2021/11/18 06:49:40;;;;;;;11.70;8.93;;;;;;;;;;5045044;28;20467;-67
2021/11/18 06:52:08;;;;;;;12.93;8.87;;;;;;;;;;5064578;28;20461;-68
2021/11/18 06:54:35;;;;;;;12.70;9.17;;;;;;;;;;5054788;28;20504;-66
2021/11/18 06:57:01;;;;;;;13.10;8.87;;;;;;;;;;5052914;28;20426;-67
2021/11/18 06:59:27;;;;;;;14.30;10.80;;;;;;;;;;5054267;28;20448;-67
2021/11/18 07:01:56;;;;;;;13.13;9.50;;;;;;;;;;5049132;28;20415;-66
2021/11/18 07:04:22;;;;;;;15.60;9.97;;;;;;;;;;5041871;28;20457;-66
2021/11/18 07:06:48;;;;;;;11.43;8.70;;;;;;;;;;5047395;28;20470;-65
2021/11/18 07:09:14;;;;;;;10.70;8.20;;;;;;;;;;5053726;28;20781;-68
2021/11/18 07:11:40;;;;;;;11.97;9.37;;;;;;;;;;5053732;28;20461;-69
2021/11/18 07:14:06;;;;;;;14.43;8.50;;;;;;;;;;5051795;28;20406;-68
2021/11/18 07:16:33;;;;;;;12.80;8.70;;;;;;;;;;5052233;28;20979;-66
2021/11/18 07:18:59;;;;;;;10.90;8.37;;;;;;;;;;5054442;28;20840;-67
2021/11/18 07:21:26;;;;;;;11.57;8.97;;;;;;;;;;5051674;28;20985;-66
2021/11/18 07:23:56;;;;;;;12.20;10.00;;;;;;;;;;5035011;28;20418;-67
2021/11/18 07:26:23;;;;;;;11.83;9.50;;;;;;;;;;5048373;28;20442;-66
2021/11/18 07:28:49;;;;;;;12.03;8.53;;;;;;;;;;5054545;28;20812;-71
2021/11/18 07:31:15;;;;;;;9.50;7.33;;;;;;;;;;5051887;28;20468;-69
2021/11/18 07:33:41;;;;;;;11.17;8.67;;;;;;;;;;5043845;28;20536;-68
2021/11/18 07:36:07;;;;;;;10.93;8.10;;;;;;;;;;5065800;28;20424;-68
2021/11/18 07:38:34;;;;;;;12.52;8.75;;;;;;;;;;5052962;28;20442;-66
2021/11/18 07:41:00;;;;;;;11.47;8.13;;;;;;;;;;5056488;28;20163;-65
2021/11/18 07:43:31;;;;;;;10.33;8.57;;;;;;;;;;5058798;28;21561;-65
2021/11/18 07:45:59;;;;;;;10.60;8.50;;;;;;;;;;5059752;28;20417;-65
2021/11/18 07:48:26;;;;;;;14.27;9.17;;;;;;;;;;5046426;28;20446;-65
2021/11/18 07:50:52;;;;;;;11.47;8.70;;;;;;;;;;5053536;28;20417;-66
2021/11/18 07:53:18;;;;;;;9.27;8.00;;;;;;;;;;5041299;28;20515;-65
2021/11/18 07:55:45;;;;;;;12.80;8.20;;;;;;;;;;5052164;28;20428;-67
2021/11/18 07:58:11;;;;;;;10.40;7.90;;;;;;;;;;5052611;28;20413;-65
2021/11/18 08:00:37;;;;;;;10.60;7.87;;;;;;;;;;5052582;28;20410;-65
2021/11/18 08:03:07;;;;;;;11.40;8.67;;;;;;;;;;5045177;28;20820;-64
2021/11/18 08:05:33;;;;;;;15.53;8.17;;;;;;;;;;5057879;28;20448;-67
2021/11/18 08:07:59;;;;;;;9.50;7.13;;;;;;;;;;5071364;28;20507;-68
2021/11/18 08:10:25;;;;;;;13.20;10.30;;;;;;;;;;5052011;28;20406;-67
2021/11/18 08:12:51;;;;;;;11.80;8.53;;;;;;;;;;5049513;28;20544;-68
2021/11/18 08:15:18;;;;;;;10.67;6.90;;;;;;;;;;5053320;28;20419;-66
2021/11/18 08:17:45;;;;;;;13.20;8.33;;;;;;;;;;5053503;28;20437;-65
2021/11/18 08:20:11;;;;;;;11.67;7.67;;;;;;;;;;5052778;28;20444;-67
2021/11/18 08:22:37;;;;;;;9.47;7.90;;;;;;;;;;5042736;28;20417;-66
2021/11/18 08:25:04;;;;;;;9.00;7.37;;;;;;;;;;5045210;28;20508;-66
2021/11/18 08:27:32;;;;;;;11.90;7.03;;;;;;;;;;5049653;28;20458;-66
2021/11/18 08:29:58;;;;;;;9.57;7.40;;;;;;;;;;5051491;28;20426;-67
2021/11/18 08:32:24;;;;;;;9.90;7.60;;;;;;;;;;5040038;28;20472;-67
2021/11/18 08:34:50;;;;;;;8.60;7.57;;;;;;;;;;5045852;28;20452;-67
2021/11/18 08:37:17;;;;;;;7.80;6.97;;;;;;;;;;5048904;28;20969;-67
2021/11/18 08:39:43;;;;;;;8.43;6.80;;;;;;;;;;5051554;28;20425;-66
2021/11/18 08:42:11;;;;;;;10.60;7.53;;;;;;;;;;5050382;28;20417;-66
2021/11/18 08:44:39;;;;;;;11.03;7.70;;;;;;;;;;5053056;28;20898;-67
2021/11/18 08:47:06;;;;;;;10.03;7.00;;;;;;;;;;5053586;28;20425;-66
2021/11/18 08:49:33;;;;;;;9.30;6.90;;;;;;;;;;5051313;28;20517;-68
2021/11/18 08:52:06;;;;;;;14.10;7.63;;;;;;;;;;5050159;28;20464;-67
2021/11/18 08:54:32;;;;;;;10.03;7.70;;;;;;;;;;5052039;28;20405;-67
2021/11/18 08:56:59;;;;;;;9.53;7.30;;;;;;;;;;5058246;28;20413;-64
2021/11/18 08:59:26;;;;;;;11.10;7.00;;;;;;;;;;5058113;28;20422;-68
2021/11/18 09:01:55;;;;;;;8.07;6.57;;;;;;;;;;5046914;28;20469;-67
2021/11/18 09:04:22;;;;;;;8.20;7.20;;;;;;;;;;5052814;28;20444;-67
2021/11/18 09:06:48;;;;;;;9.93;7.27;;;;;;;;;;5052801;28;20441;-70
2021/11/18 09:09:17;;;;;;;9.00;6.67;;;;;;;;;;5051401;28;20456;-69
2021/11/18 09:11:44;;;;;;;11.40;7.20;;;;;;;;;;5035504;28;20457;-68
2021/11/18 09:14:10;;;;;;;10.60;8.00;;;;;;;;;;5051331;28;20422;-71
2021/11/18 09:16:37;;;;;;;9.30;6.90;;;;;;;;;;5050643;28;20444;-71
2021/11/18 09:19:05;;;;;;;8.30;6.87;;;;;;;;;;5051684;28;20460;-68
2021/11/18 09:21:31;;;;;;;9.37;7.30;;;;;;;;;;5047081;28;20821;-70
2021/11/18 09:23:59;;;;;;;16.07;7.27;;;;;;;;;;5050608;28;20413;-71
2021/11/18 09:26:28;;;;;;;9.53;7.60;;;;;;;;;;5052642;28;20888;-71
2021/11/18 09:28:54;;;;;;;10.20;6.47;;;;;;;;;;5048391;28;20409;-70
2021/11/18 09:31:22;;;;;;;10.63;6.90;;;;;;;;;;5054052;28;20449;-67
2021/11/18 09:33:48;;;;;;;7.80;7.00;;;;;;;;;;5055923;28;20444;-72
2021/11/18 09:36:14;;;;;;;8.30;6.80;;;;;;;;;;5056824;28;20428;-67
2021/11/18 09:38:44;;;;;;;10.03;7.47;;;;;;;;;;5049238;28;20445;-67
2021/11/18 09:41:28;;;;;;;10.20;8.00;;;;;;;;;;5055131;28;20417;-71
2021/11/18 09:43:58;;;;;;;7.57;6.27;;;;;;;;;;5055971;28;20417;-70
2021/11/18 09:46:43;;;;;;;8.90;7.37;;;;;;;;;;5056655;28;20443;-66
2021/11/18 09:49:21;;;;;;;9.33;6.67;;;;;;;;;;5052256;28;20915;-67
2021/11/18 09:51:50;;;;;;;8.60;7.30;;;;;;;;;;5051882;28;20547;-68
2021/11/18 09:54:16;;;;;;;9.10;7.43;;;;;;;;;;5044608;28;20434;-71
2021/11/18 09:56:54;;;;;;;10.57;6.73;;;;;;;;;;5037909;28;20515;-68
2021/11/18 09:59:37;;;;;;;12.67;8.23;;;;;;;;;;5041754;28;20426;-67
2021/11/18 10:02:10;;;;;;;12.47;8.27;;;;;;;;;;5034426;28;20459;-65
2021/11/18 10:04:42;;;;;;;10.30;7.60;;;;;;;;;;5055481;28;20417;-68
2021/11/18 10:07:18;;;;;;;18.00;7.33;;;;;;;;;;5051728;28;20463;-68
2021/11/18 10:09:44;;;;;;;10.60;7.93;;;;;;;;;;5037195;28;20473;-70
2021/11/18 10:12:13;;;;;;;11.20;7.37;;;;;;;;;;5048528;28;20464;-70
2021/11/18 10:14:39;;;;;;;8.30;6.80;;;;;;;;;;5055159;28;20416;-72
2021/11/18 10:17:11;;;;;;;13.83;7.53;;;;;;;;;;5046927;28;20441;-73
2021/11/18 10:19:42;;;;;;;8.73;7.83;;;;;;;;;;5052264;28;20421;-70
2021/11/18 10:22:10;;;;;;;8.90;7.23;;;;;;;;;;5051186;28;20419;-73
2021/11/18 10:24:42;;;;;;;7.70;6.23;;;;;;;;;;5044961;28;20843;-71
2021/11/18 10:27:11;;;;;;;7.93;6.63;;;;;;;;;;5044884;28;20476;-70
2021/11/18 10:29:53;;;;;;;8.53;5.63;;;;;;;;;;5042394;28;20433;-69
2021/11/18 10:32:22;;;;;;;9.07;6.73;;;;;;;;;;5048863;28;20552;-66
2021/11/18 10:35:14;;;;;;;7.70;5.97;;;;;;;;;;5053660;28;20425;-62
2021/11/18 10:37:46;;;;;;;9.80;6.73;;;;;;;;;;5048526;28;20441;-69
2021/11/18 10:40:18;;;;;;;7.83;6.57;;;;;;;;;;5050829;28;20425;-68
2021/11/18 10:42:48;;;;;;;9.73;6.20;;;;;;;;;;5047689;28;20418;-67
2021/11/18 10:45:35;;;;;;;9.60;6.10;;;;;;;;;;5051891;28;20414;-68
2021/11/18 10:48:15;;;;;;;8.57;7.40;;;;;;;;;;5044133;28;20450;-67
2021/11/18 10:50:41;;;;;;;11.67;8.90;;;;;;;;;;5054259;28;20442;-65
2021/11/18 10:53:14;;;;;;;9.07;6.60;;;;;;;;;;5052430;28;20484;-65
2021/11/18 10:55:41;;;;;;;11.47;6.30;;;;;;;;;;5053302;28;20491;-68
2021/11/18 10:58:10;;;;;;;7.80;5.47;;;;;;;;;;5050215;28;20419;-66
2021/11/18 11:00:40;;;;;;;8.17;6.10;;;;;;;;;;5042299;28;20894;-68
2021/11/18 11:03:24;;;;;;;8.57;6.07;;;;;;;;;;5042402;28;20494;-67
2021/11/18 11:06:06;;;;;;;6.93;5.73;;;;;;;;;;5049131;28;20471;-66
2021/11/18 11:08:33;;;;;;;7.97;5.93;;;;;;;;;;5051273;28;20433;-68
2021/11/18 11:11:02;;;;;;;7.07;4.77;;;;;;;;;;5053737;28;20422;-68
2021/11/18 11:13:41;;;;;;;7.27;4.60;;;;;;;;;;5052701;28;20515;-66
2021/11/18 11:16:22;;;;;;;5.20;4.40;;;;;;;;;;5051865;28;20446;-69
2021/11/18 11:18:55;;;;;;;8.93;4.77;;;;;;;;;;5044145;28;20449;-69
2021/11/18 11:21:24;;;;;;;6.13;5.23;;;;;;;;;;5043432;28;20436;-68
2021/11/18 11:24:06;;;;;;;6.47;4.13;;;;;;;;;;5053185;28;20531;-67
2021/11/18 11:26:42;;;;;;;4.63;3.60;;;;;;;;;;5056671;28;20945;-67
2021/11/18 11:29:11;;;;;;;3.60;3.07;;;;;;;;;;5048536;28;20453;-67
2021/11/18 11:31:50;;;;;;;5.10;3.60;;;;;;;;;;5050970;28;20786;-66
2021/11/18 11:34:16;;;;;;;4.67;3.07;;;;;;;;;;5038827;28;20402;-69
2021/11/18 11:36:48;;;;;;;4.20;2.93;;;;;;;;;;5055739;28;20432;-67
2021/11/18 11:39:33;;;;;;;4.50;3.27;;;;;;;;;;5051614;28;20416;-66
2021/11/18 11:42:18;;;;;;;4.90;3.40;;;;;;;;;;5051339;28;20438;-67
2021/11/18 11:45:07;;;;;;;4.57;3.07;;;;;;;;;;5045162;28;20432;-66
2021/11/18 11:47:42;;;;;;;3.80;2.97;;;;;;;;;;5044061;28;20442;-67
2021/11/18 11:50:28;;;;;;;5.63;2.80;;;;;;;;;;5040481;28;20895;-67
2021/11/18 11:53:03;;;;;;;3.00;2.40;;;;;;;;;;5006343;28;20462;-68
2021/11/18 11:55:39;;;;;;;5.03;3.40;;;;;;;;;;5052417;28;20413;-68
2021/11/18 11:58:12;;;;;;;4.10;3.20;;;;;;;;;;5051106;28;20441;-68
2021/11/18 12:00:46;;;;;;;3.23;2.63;;;;;;;;;;5052159;28;20474;-68
2021/11/18 12:03:31;;;;;;;6.37;3.23;;;;;;;;;;5044670;28;20426;-67
2021/11/18 12:06:23;;;;;;;6.07;2.77;;;;;;;;;;5048351;28;20495;-68
2021/11/18 12:09:01;;;;;;;3.83;2.90;;;;;;;;;;5044933;28;20566;-67
2021/11/18 12:11:35;;;;;;;3.70;3.20;;;;;;;;;;5047765;28;20743;-68
2021/11/18 12:14:08;;;;;;;4.70;3.13;;;;;;;;;;5053430;28;20417;-68
2021/11/18 12:16:38;;;;;;;4.47;2.90;;;;;;;;;;5049834;28;20449;-67
2021/11/18 12:19:14;;;;;;;4.90;3.30;;;;;;;;;;5052230;28;20436;-72
2021/11/18 12:21:40;;;;;;;4.10;3.30;;;;;;;;;;5046581;28;20409;-67
2021/11/18 12:24:07;;;;;;;4.30;2.33;;;;;;;;;;5050364;28;20432;-65
2021/11/18 12:26:53;;;;;;;4.37;3.00;;;;;;;;;;5035083;28;20454;-66
2021/11/18 12:29:19;;;;;;;2.87;2.30;;;;;;;;;;5047265;28;20491;-66
2021/11/18 12:32:04;;;;;;;3.50;2.73;;;;;;;;;;5050731;28;20430;-67
2021/11/18 12:34:48;;;;;;;3.70;3.03;;;;;;;;;;5051187;28;20410;-67
2021/11/18 12:37:14;;;;;;;3.10;2.67;;;;;;;;;;5046479;28;20441;-70
2021/11/18 12:39:49;;;;;;;3.30;3.00;;;;;;;;;;5047324;28;20413;-71
2021/11/18 12:42:16;;;;;;;3.30;2.70;;;;;;;;;;5052113;28;20484;-70
2021/11/18 12:44:47;;;;;;;3.57;2.83;;;;;;;;;;5038351;28;20422;-67
2021/11/18 12:47:15;;;;;;;4.00;2.80;;;;;;;;;;5046517;28;20474;-68
2021/11/18 12:49:50;;;;;;;4.03;2.90;;;;;;;;;;5044177;28;20472;-71
2021/11/18 12:52:16;;;;;;;3.43;2.53;;;;;;;;;;5048991;28;20487;-69
2021/11/18 12:55:00;;;;;;;3.23;2.50;;;;;;;;;;5041299;28;20426;-68
2021/11/18 12:57:29;;;;;;;3.20;2.43;;;;;;;;;;5043711;28;20448;-65
2021/11/18 12:59:57;;;;;;;3.27;2.73;;;;;;;;;;5040709;28;20464;-65
2021/11/18 13:02:26;;;;;;;4.17;3.27;;;;;;;;;;5042671;28;20455;-66
2021/11/18 13:04:57;;;;;;;4.27;2.40;;;;;;;;;;5051072;28;20841;-66
2021/11/18 13:07:42;;;;;;;4.23;3.20;;;;;;;;;;5048507;28;20457;-67
2021/11/18 13:10:23;;;;;;;6.83;3.17;;;;;;;;;;5048089;28;20854;-69
2021/11/18 13:13:04;;;;;;;7.67;4.13;;;;;;;;;;5041947;28;20487;-66
2021/11/18 13:15:45;;;;;;;3.90;3.47;;;;;;;;;;5049251;28;20807;-67
2021/11/18 13:18:35;;;;;;;4.30;3.37;;;;;;;;;;5043382;28;20423;-67
2021/11/18 13:21:03;;;;;;;4.63;3.30;;;;;;;;;;5043113;28;20930;-67
2021/11/18 13:23:29;;;;;;;4.10;3.20;;;;;;;;;;5053033;28;20906;-69
2021/11/18 13:25:58;;;;;;;6.60;2.93;;;;;;;;;;5042855;28;20521;-68
2021/11/18 13:28:36;;;;;;;10.03;3.90;;;;;;;;;;5054084;28;20474;-70
2021/11/18 13:31:03;;;;;;;4.03;3.03;;;;;;;;;;5048161;28;20467;-67
2021/11/18 13:33:47;;;;;;;4.80;2.90;;;;;;;;;;5047286;28;20525;-68
2021/11/18 13:36:19;;;;;;;5.07;3.50;;;;;;;;;;5043993;28;20918;-68
2021/11/18 13:39:04;;;;;;;5.70;3.90;;;;;;;;;;5055042;28;20948;-66
2021/11/18 13:41:43;;;;;;;6.13;3.50;;;;;;;;;;5048438;28;20413;-68
2021/11/18 13:44:10;;;;;;;4.70;3.73;;;;;;;;;;5050289;28;20910;-67
2021/11/18 13:47:02;;;;;;;4.23;3.80;;;;;;;;;;5047995;28;20532;-67
2021/11/18 13:49:29;;;;;;;7.20;4.10;;;;;;;;;;5053930;28;20429;-67
2021/11/18 13:51:57;;;;;;;5.60;4.00;;;;;;;;;;5051099;28;20454;-67
2021/11/18 13:54:23;;;;;;;4.97;3.73;;;;;;;;;;5047398;28;20471;-67
2021/11/18 13:57:12;;;;;;;4.73;3.33;;;;;;;;;;5050492;28;20839;-66
2021/11/18 14:00:06;;;;;;;5.13;3.90;;;;;;;;;;5058947;28;20929;-67
2021/11/18 14:02:44;;;;;;;5.23;4.30;;;;;;;;;;5048080;28;20457;-67
2021/11/18 14:05:16;;;;;;;7.50;4.67;;;;;;;;;;5053875;28;20479;-65
2021/11/18 14:07:49;;;;;;;4.37;3.60;;;;;;;;;;5062742;28;20460;-67
2021/11/18 14:10:21;;;;;;;6.10;4.60;;;;;;;;;;5055158;28;20467;-65
2021/11/18 14:12:50;;;;;;;4.97;3.77;;;;;;;;;;5052111;28;20453;-66
2021/11/18 14:15:23;;;;;;;4.30;3.30;;;;;;;;;;5060532;28;20418;-67
2021/11/18 14:17:54;;;;;;;5.93;4.40;;;;;;;;;;5047831;28;20433;-66
2021/11/18 14:20:28;;;;;;;5.20;4.50;;;;;;;;;;5062609;28;20475;-68
2021/11/18 14:22:54;;;;;;;5.00;3.67;;;;;;;;;;5046018;28;20450;-66
2021/11/18 14:25:26;;;;;;;7.17;5.00;;;;;;;;;;5058684;28;20802;-66
2021/11/18 14:27:57;;;;;;;5.43;4.53;;;;;;;;;;5055133;28;20568;-68
2021/11/18 14:30:35;;;;;;;5.40;3.83;;;;;;;;;;5052039;28;20436;-67
2021/11/18 14:33:04;;;;;;;6.07;4.57;;;;;;;;;;5048192;28;20446;-66
2021/11/18 14:35:39;;;;;;;7.17;4.87;;;;;;;;;;5041583;28;20427;-68
2021/11/18 14:38:24;;;;;;;5.90;4.13;;;;;;;;;;5050205;28;20484;-68
2021/11/18 14:40:56;;;;;;;5.47;3.90;;;;;;;;;;5053077;28;20417;-66
2021/11/18 14:43:22;;;;;;;9.50;4.17;;;;;;;;;;5050854;28;20413;-68
2021/11/18 14:46:08;;;;;;;4.53;3.60;;;;;;;;;;5044896;28;20434;-67
2021/11/18 14:48:45;;;;;;;5.70;4.00;;;;;;;;;;5050353;28;20459;-68